createdAt,value
2022-08-16T00:02:30.364Z,6.60
2022-08-16T00:04:59.771Z,9.60
2022-08-16T00:07:26.843Z,8.15
2022-08-16T00:09:55.889Z,7.10
2022-08-16T00:12:24.047Z,7.40
2022-08-16T00:14:50.588Z,9.55
2022-08-16T00:17:23.176Z,7.30
2022-08-16T00:19:53.322Z,7.22
2022-08-16T00:22:20.889Z,8.02
2022-08-16T00:24:53.352Z,8.07
2022-08-16T00:27:21.128Z,7.22
2022-08-16T00:29:47.969Z,7.10
2022-08-16T00:32:27.614Z,7.18
2022-08-16T00:37:57.351Z,8.68
2022-08-16T00:40:34.569Z,7.47
2022-08-16T00:43:04.344Z,7.30
2022-08-16T00:45:36.392Z,7.63
2022-08-16T00:50:50.199Z,7.75
2022-08-16T00:53:22.000Z,8.05
2022-08-16T00:55:51.153Z,8.07
2022-08-16T00:58:34.522Z,8.07
2022-08-16T01:01:01.871Z,7.72
2022-08-16T01:03:31.706Z,10.32
2022-08-16T01:06:40.074Z,9.98
2022-08-16T01:08:50.702Z,7.93
2022-08-16T01:11:18.172Z,10.65
2022-08-16T01:13:47.505Z,9.68
2022-08-16T01:16:20.126Z,8.45
2022-08-16T01:19:12.402Z,8.85
2022-08-16T01:22:47.861Z,8.52
2022-08-16T01:25:02.410Z,14.55
2022-08-16T01:27:36.962Z,10.15
2022-08-16T01:30:19.923Z,8.57
2022-08-16T01:35:52.414Z,7.43
2022-08-16T01:38:25.990Z,7.72
2022-08-16T01:40:58.403Z,7.43
2022-08-16T01:43:29.440Z,7.40
2022-08-16T01:45:59.602Z,8.63
2022-08-16T01:48:46.386Z,8.88
2022-08-16T01:51:16.998Z,7.40
2022-08-16T01:53:43.708Z,8.52
2022-08-16T01:56:24.522Z,8.50
2022-08-16T01:58:55.643Z,7.90
2022-08-16T02:03:52.974Z,7.05
2022-08-16T02:06:34.487Z,7.50
2022-08-16T02:09:05.229Z,7.38
2022-08-16T02:11:47.644Z,8.15
2022-08-16T02:14:18.310Z,7.40
2022-08-16T02:16:47.746Z,7.38
2022-08-16T02:19:16.146Z,7.03
2022-08-16T02:22:08.904Z,8.85
2022-08-16T02:24:40.639Z,7.47
2022-08-16T02:27:08.323Z,6.60
2022-08-16T02:29:34.779Z,7.65
2022-08-16T02:32:04.318Z,6.53
2022-08-16T02:34:48.498Z,6.20
2022-08-16T02:37:20.960Z,7.93
2022-08-16T02:39:47.629Z,6.43
2022-08-16T02:42:20.938Z,10.57
2022-08-16T02:44:47.393Z,5.82
2022-08-16T02:47:25.363Z,6.30
2022-08-16T02:49:58.994Z,6.25
2022-08-16T02:52:39.067Z,6.22
2022-08-16T02:55:10.966Z,6.63
2022-08-16T02:57:37.884Z,6.72
2022-08-16T03:00:33.989Z,6.20
2022-08-16T03:02:59.507Z,5.60
2022-08-16T03:05:26.199Z,6.22
2022-08-16T03:07:57.699Z,7.80
2022-08-16T03:10:24.342Z,6.85
2022-08-16T03:13:00.398Z,5.82
2022-08-16T03:15:27.767Z,5.80
2022-08-16T03:17:54.404Z,5.80
2022-08-16T03:20:20.848Z,8.13
2022-08-16T03:22:59.044Z,5.63
2022-08-16T03:25:25.447Z,6.32
2022-08-16T03:30:36.265Z,5.75
2022-08-16T03:33:03.757Z,7.28
2022-08-16T03:35:34.306Z,6.03
2022-08-16T03:38:04.917Z,6.35
2022-08-16T03:40:51.749Z,6.15
2022-08-16T03:43:19.827Z,6.80
2022-08-16T03:45:48.592Z,6.80
2022-08-16T03:48:19.683Z,8.00
2022-08-16T03:51:00.009Z,6.47
2022-08-16T03:53:37.673Z,6.55
2022-08-16T03:56:07.299Z,6.80
2022-08-16T03:58:34.719Z,6.75
2022-08-16T04:01:04.462Z,6.50
2022-08-16T04:03:31.454Z,6.20
2022-08-16T04:05:57.932Z,5.63
2022-08-16T04:08:24.902Z,6.50
2022-08-16T04:10:55.040Z,7.35
2022-08-16T04:14:00.597Z,6.53
2022-08-16T04:16:09.226Z,8.57
2022-08-16T04:18:54.282Z,6.25
2022-08-16T04:21:29.757Z,6.82
2022-08-16T04:23:56.246Z,6.55
2022-08-16T04:26:22.674Z,6.53
2022-08-16T04:28:55.886Z,6.40
2022-08-16T04:31:36.681Z,7.63
2022-08-16T04:34:03.928Z,6.80
2022-08-16T04:36:30.344Z,6.85
2022-08-16T04:38:58.625Z,6.60
2022-08-16T04:41:32.289Z,6.50
2022-08-16T04:44:00.157Z,6.93
2022-08-16T04:47:00.992Z,9.63
2022-08-16T04:49:13.246Z,6.57
2022-08-16T04:51:43.261Z,7.53
2022-08-16T04:54:20.212Z,6.35
2022-08-16T04:56:46.764Z,7.10
2022-08-16T04:59:15.208Z,7.25
2022-08-16T05:01:58.905Z,8.18
2022-08-16T05:04:25.963Z,7.55
2022-08-16T05:06:56.745Z,9.55
2022-08-16T05:09:23.912Z,7.38
2022-08-16T05:11:50.368Z,7.53
2022-08-16T05:14:20.378Z,7.78
2022-08-16T05:17:03.778Z,6.25
2022-08-16T05:19:35.853Z,6.32
2022-08-16T05:22:02.756Z,7.13
2022-08-16T05:24:29.161Z,6.63
2022-08-16T05:26:56.785Z,6.22
2022-08-16T05:29:25.009Z,6.63
2022-08-16T05:32:32.543Z,7.00
2022-08-16T05:34:56.418Z,8.38
2022-08-16T05:37:24.391Z,6.75
2022-08-16T05:39:51.765Z,6.40
2022-08-16T05:42:21.960Z,6.13
2022-08-16T05:45:02.489Z,9.70
2022-08-16T05:47:33.571Z,6.60
2022-08-16T05:50:10.012Z,6.57
2022-08-16T05:52:45.895Z,6.03
2022-08-16T05:55:12.539Z,6.32
2022-08-16T05:57:38.968Z,6.07
2022-08-16T06:00:10.926Z,7.40
2022-08-16T06:02:37.583Z,6.03
2022-08-16T06:05:05.566Z,5.95
2022-08-16T06:07:32.358Z,7.05
2022-08-16T06:10:00.169Z,6.60
2022-08-16T06:12:28.947Z,6.13
2022-08-16T06:15:04.539Z,7.88
2022-08-16T06:17:41.587Z,6.05
2022-08-16T06:20:23.479Z,6.20
2022-08-16T06:22:58.551Z,7.28
2022-08-16T06:25:39.590Z,10.38
2022-08-16T06:28:09.440Z,7.18
2022-08-16T06:30:43.938Z,5.68
2022-08-16T06:33:19.933Z,9.02
2022-08-16T06:35:59.542Z,8.32
2022-08-16T06:38:33.830Z,6.10
2022-08-16T06:41:03.755Z,7.28
2022-08-16T06:43:30.183Z,8.35
2022-08-16T06:45:56.778Z,5.50
2022-08-16T06:48:32.712Z,5.35
2022-08-16T06:51:01.420Z,7.10
2022-08-16T06:53:29.734Z,7.18
2022-08-16T06:55:58.519Z,4.93
2022-08-16T06:58:31.969Z,8.20
2022-08-16T07:01:00.113Z,4.80
2022-08-16T07:03:32.169Z,5.82
2022-08-16T07:05:59.675Z,6.03
2022-08-16T07:08:27.646Z,6.93
2022-08-16T07:10:55.591Z,5.93
2022-08-16T07:13:54.720Z,7.35
2022-08-16T07:16:15.360Z,6.55
2022-08-16T07:18:59.006Z,7.28
2022-08-16T07:21:28.213Z,7.20
2022-08-16T07:24:29.531Z,5.70
2022-08-16T07:26:56.441Z,7.47
2022-08-16T07:29:22.857Z,9.50
2022-08-16T07:31:49.445Z,7.80
2022-08-16T07:34:15.874Z,6.03
2022-08-16T07:36:42.979Z,7.32
2022-08-16T07:39:13.159Z,5.63
2022-08-16T07:41:40.740Z,5.90
2022-08-16T07:44:16.245Z,5.88
2022-08-16T07:46:43.436Z,6.20
2022-08-16T07:49:11.362Z,7.32
2022-08-16T07:51:38.072Z,6.18
2022-08-16T07:54:09.527Z,9.20
2022-08-16T07:56:37.517Z,5.97
2022-08-16T07:59:05.363Z,7.72
2022-08-16T08:01:31.900Z,6.25
2022-08-16T08:03:58.826Z,5.30
2022-08-16T08:06:28.553Z,6.25
2022-08-16T08:08:59.157Z,8.90
2022-08-16T08:11:28.150Z,6.17
2022-08-16T08:13:55.166Z,9.02
2022-08-16T08:16:30.489Z,6.72
2022-08-16T08:19:00.541Z,6.57
2022-08-16T08:21:59.453Z,6.28
2022-08-16T08:24:15.232Z,7.05
2022-08-16T08:26:42.851Z,6.25
2022-08-16T08:29:09.603Z,8.65
2022-08-16T08:31:36.345Z,5.97
2022-08-16T08:34:05.047Z,5.40
2022-08-16T08:36:33.251Z,7.85
2022-08-16T08:39:00.594Z,5.50
2022-08-16T08:41:29.279Z,6.40
2022-08-16T08:43:57.499Z,6.50
2022-08-16T08:46:25.459Z,5.53
2022-08-16T08:48:59.025Z,5.88
2022-08-16T08:51:27.522Z,9.70
2022-08-16T08:53:58.713Z,5.70
2022-08-16T08:56:25.782Z,6.68
2022-08-16T08:58:55.017Z,6.80
2022-08-16T09:01:31.877Z,6.07
2022-08-16T09:04:04.609Z,5.75
2022-08-16T09:06:32.451Z,6.60
2022-08-16T09:09:00.003Z,6.90
2022-08-16T09:11:40.819Z,7.55
2022-08-16T09:14:08.850Z,8.75
2022-08-16T09:17:03.607Z,7.45
2022-08-16T09:19:40.846Z,8.00
2022-08-16T09:22:19.945Z,5.25
2022-08-16T09:24:52.593Z,6.15
2022-08-16T09:27:25.098Z,7.72
2022-08-16T09:32:30.306Z,6.63
2022-08-16T09:34:58.509Z,7.70
2022-08-16T09:37:29.567Z,6.40
2022-08-16T09:39:59.547Z,8.60
2022-08-16T09:42:28.226Z,7.50
2022-08-16T09:45:12.081Z,8.43
2022-08-16T09:47:56.862Z,8.57
2022-08-16T09:50:26.799Z,7.38
2022-08-16T09:53:06.906Z,9.82
2022-08-16T09:55:33.371Z,7.68
2022-08-16T09:58:12.307Z,6.45
2022-08-16T10:00:57.477Z,7.38
2022-08-16T10:03:27.593Z,7.70
2022-08-16T10:05:56.834Z,8.00
2022-08-16T10:08:25.929Z,5.95
2022-08-16T10:11:12.018Z,8.95
2022-08-16T10:13:39.463Z,7.78
2022-08-16T10:18:56.271Z,5.82
2022-08-16T10:21:23.158Z,6.78
2022-08-16T10:23:53.559Z,6.22
2022-08-16T10:27:19.833Z,7.78
2022-08-16T10:29:08.516Z,5.28
2022-08-16T10:31:46.056Z,5.25
2022-08-16T10:34:31.569Z,8.15
2022-08-16T10:37:00.527Z,7.18
2022-08-16T10:39:40.547Z,5.68
2022-08-16T10:42:08.500Z,8.25
2022-08-16T10:44:34.997Z,6.35
2022-08-16T10:47:02.376Z,5.43
2022-08-16T10:49:29.042Z,5.47
2022-08-16T10:52:02.410Z,4.72
2022-08-16T10:57:33.077Z,4.75
2022-08-16T10:59:59.968Z,4.38
2022-08-16T11:02:58.969Z,4.72
2022-08-16T11:05:16.243Z,6.00
2022-08-16T11:07:53.614Z,4.28
2022-08-16T11:17:01.945Z,4.85
2022-08-16T11:19:06.104Z,4.60
2022-08-16T11:22:22.445Z,6.63
2022-08-16T11:24:42.757Z,4.43
2022-08-16T11:27:23.389Z,4.85
2022-08-16T11:29:53.410Z,7.38
2022-08-16T11:32:32.363Z,7.50
2022-08-16T11:35:10.840Z,3.72
2022-08-16T11:40:46.850Z,5.88
2022-08-16T11:43:21.790Z,5.75
2022-08-16T11:45:53.869Z,5.93
2022-08-16T11:48:21.587Z,4.47
2022-08-16T11:50:48.077Z,4.75
2022-08-16T11:53:15.259Z,5.80
2022-08-16T11:55:44.224Z,6.55
2022-08-16T11:58:11.987Z,5.47
2022-08-16T12:00:51.260Z,5.40
2022-08-16T12:03:19.104Z,6.65
2022-08-16T12:05:46.032Z,4.20
2022-08-16T12:08:12.625Z,6.22
2022-08-16T12:10:39.785Z,5.80
2022-08-16T12:13:07.508Z,6.35
2022-08-16T12:15:37.789Z,4.25
2022-08-16T12:18:05.159Z,4.07
2022-08-16T12:20:36.640Z,4.85
2022-08-16T12:23:03.966Z,4.68
2022-08-16T12:25:32.506Z,4.75
2022-08-16T12:28:02.870Z,3.88
2022-08-16T12:30:38.601Z,6.80
2022-08-16T12:33:07.621Z,4.05
2022-08-16T12:35:36.930Z,4.68
2022-08-16T12:38:10.359Z,3.33
2022-08-16T12:40:52.998Z,3.97
2022-08-16T12:43:23.494Z,4.90
2022-08-16T12:45:52.583Z,5.35
2022-08-16T12:48:39.707Z,6.00
2022-08-16T12:51:19.681Z,4.65
2022-08-16T12:53:53.441Z,3.88
2022-08-16T12:56:22.281Z,3.90
2022-08-16T12:58:53.208Z,3.60
2022-08-16T13:01:26.538Z,3.40
2022-08-16T13:04:11.322Z,5.40
2022-08-16T13:06:42.123Z,3.42
2022-08-16T13:09:21.781Z,3.67
2022-08-16T13:11:59.964Z,5.82
2022-08-16T13:14:31.306Z,2.92
2022-08-16T13:17:05.176Z,3.40
2022-08-16T13:19:56.359Z,3.25
2022-08-16T13:22:21.762Z,3.45
2022-08-16T13:24:48.181Z,4.55
2022-08-16T13:27:17.714Z,5.20
2022-08-16T13:29:45.023Z,5.15
2022-08-16T13:32:39.639Z,3.42
2022-08-16T13:35:04.807Z,3.60
2022-08-16T13:37:32.504Z,4.43
2022-08-16T13:40:04.494Z,3.83
2022-08-16T13:42:32.729Z,3.15
2022-08-16T13:45:08.962Z,9.82
2022-08-16T13:47:39.881Z,4.05
2022-08-16T13:50:08.907Z,3.75
2022-08-16T13:52:39.692Z,6.65
2022-08-16T13:55:15.599Z,4.07
2022-08-16T13:57:53.473Z,4.47
2022-08-16T14:00:31.015Z,4.68
2022-08-16T14:02:59.177Z,3.85
2022-08-16T14:05:26.303Z,3.72
2022-08-16T14:07:53.665Z,4.18
2022-08-16T14:10:20.114Z,4.85
2022-08-16T14:12:47.764Z,5.20
2022-08-16T14:15:15.846Z,3.05
2022-08-16T14:18:17.115Z,3.78
2022-08-16T14:20:28.778Z,3.80
2022-08-16T14:22:55.400Z,2.72
2022-08-16T14:25:23.059Z,3.65
2022-08-16T14:27:52.322Z,4.75
2022-08-16T14:30:21.529Z,4.10
2022-08-16T14:32:51.062Z,4.18
2022-08-16T14:35:36.526Z,4.43
2022-08-16T14:38:10.460Z,3.67
2022-08-16T14:40:47.177Z,4.70
2022-08-16T14:43:19.095Z,4.65
2022-08-16T14:45:46.196Z,5.45
2022-08-16T14:48:21.488Z,3.65
2022-08-16T14:50:51.889Z,7.22
2022-08-16T14:53:18.329Z,5.30
2022-08-16T14:55:45.112Z,5.07
2022-08-16T14:58:19.256Z,6.00
2022-08-16T15:00:47.692Z,7.07
2022-08-16T15:03:17.265Z,6.57
2022-08-16T15:05:44.190Z,9.48
2022-08-16T15:08:11.115Z,7.55
2022-08-16T15:10:39.041Z,9.68
2022-08-16T15:13:10.668Z,5.90
2022-08-16T15:15:38.440Z,5.07
2022-08-16T15:18:06.232Z,8.02
2022-08-16T15:20:37.072Z,6.53
2022-08-16T15:23:06.728Z,8.75
2022-08-16T15:25:44.780Z,10.68
2022-08-16T15:28:30.664Z,9.77
2022-08-16T15:31:01.015Z,6.40
2022-08-16T15:35:58.900Z,7.05
2022-08-16T15:38:57.874Z,10.15
2022-08-16T15:41:32.531Z,5.10
2022-08-16T15:44:05.285Z,7.82
2022-08-16T15:46:54.717Z,8.45
2022-08-16T15:49:23.582Z,6.90
2022-08-16T15:51:51.867Z,6.82
2022-08-16T15:54:30.089Z,6.97
2022-08-16T15:57:04.319Z,8.00
2022-08-16T15:59:48.784Z,16.40
2022-08-16T16:02:27.326Z,12.82
2022-08-16T16:04:54.375Z,6.78
2022-08-16T16:07:21.743Z,7.40
2022-08-16T16:09:48.695Z,10.70
2022-08-16T16:12:41.943Z,6.63
2022-08-16T16:15:03.689Z,7.78
2022-08-16T16:17:30.133Z,7.20
2022-08-16T16:19:56.561Z,8.07
2022-08-16T16:22:25.434Z,10.88
2022-08-16T16:24:52.990Z,12.43
2022-08-16T16:27:21.912Z,12.77
2022-08-16T16:29:57.719Z,32.83
2022-08-16T16:32:34.078Z,12.73
2022-08-16T16:35:01.902Z,11.80
2022-08-16T16:37:28.617Z,8.18
2022-08-16T16:39:56.224Z,14.82
2022-08-16T16:42:29.273Z,18.13
2022-08-16T16:45:00.700Z,11.45
2022-08-16T16:49:55.011Z,11.77
2022-08-16T16:52:43.477Z,17.95
2022-08-16T16:55:09.341Z,14.88
2022-08-16T16:57:54.795Z,18.60
2022-08-16T17:00:29.767Z,14.15
2022-08-16T17:03:05.702Z,30.15
2022-08-16T17:05:32.503Z,30.60
2022-08-16T17:07:59.843Z,23.88
2022-08-16T17:10:46.489Z,30.42
2022-08-16T17:13:15.577Z,62.72
2022-08-16T17:15:42.028Z,46.22
2022-08-16T17:19:17.687Z,51.50
2022-08-16T17:20:55.131Z,31.40
2022-08-16T17:23:23.162Z,31.30
2022-08-16T17:26:10.566Z,30.45
2022-08-16T17:28:58.503Z,24.35
2022-08-16T17:31:23.715Z,13.25
2022-08-16T17:34:30.546Z,14.48
2022-08-16T17:36:54.576Z,15.55
2022-08-16T17:39:22.093Z,12.27
2022-08-16T17:41:50.738Z,9.57
2022-08-16T17:44:19.100Z,6.60
2022-08-16T17:46:52.152Z,10.82
2022-08-16T17:49:19.381Z,7.55
2022-08-16T17:51:45.845Z,7.65
2022-08-16T17:54:20.302Z,10.60
2022-08-16T17:57:00.572Z,6.78
2022-08-16T17:59:27.828Z,10.55
2022-08-16T18:01:54.700Z,5.57
2022-08-16T18:04:49.120Z,8.43
2022-08-16T18:07:08.304Z,7.28
2022-08-16T18:09:36.785Z,8.23
2022-08-16T18:12:44.400Z,7.82
2022-08-16T18:15:21.389Z,5.75
2022-08-16T18:17:49.778Z,7.85
2022-08-16T18:20:34.577Z,7.25
2022-08-16T18:23:09.555Z,15.63
2022-08-16T18:25:42.730Z,11.10
2022-08-16T18:28:09.203Z,11.88
2022-08-16T18:30:35.712Z,8.85
2022-08-16T18:33:02.213Z,11.48
2022-08-16T18:35:28.857Z,11.98
2022-08-16T18:37:55.810Z,23.23
2022-08-16T18:40:22.594Z,21.30
2022-08-16T18:42:54.467Z,18.08
2022-08-16T18:45:21.259Z,15.00
2022-08-16T18:47:47.659Z,10.43
2022-08-16T18:50:14.157Z,14.07
2022-08-16T18:52:49.167Z,11.77
2022-08-16T18:55:15.731Z,11.23
2022-08-16T18:57:44.673Z,13.85
2022-08-16T19:00:13.218Z,11.73
2022-08-16T19:02:57.397Z,9.18
2022-08-16T19:05:27.480Z,14.38
2022-08-16T19:07:53.913Z,11.77
2022-08-16T19:10:20.852Z,9.70
2022-08-16T19:12:47.548Z,12.68
2022-08-16T19:15:17.177Z,12.68
2022-08-16T19:17:44.844Z,10.65
2022-08-16T19:20:12.498Z,16.48
2022-08-16T19:25:47.245Z,13.38
2022-08-16T19:28:48.931Z,10.27
2022-08-16T19:31:03.832Z,22.38
2022-08-16T19:33:30.621Z,18.85
2022-08-16T19:35:57.031Z,12.45
2022-08-16T19:38:23.491Z,17.38
2022-08-16T19:40:50.370Z,15.70
2022-08-16T19:43:16.856Z,10.43
2022-08-16T19:45:46.124Z,14.98
2022-08-16T19:48:12.915Z,9.50
2022-08-16T19:50:39.380Z,15.70
2022-08-16T19:53:18.546Z,15.90
2022-08-16T19:55:47.213Z,14.13
2022-08-16T19:58:15.322Z,12.85
2022-08-16T20:00:43.193Z,16.45
2022-08-16T20:03:13.075Z,20.85
2022-08-16T20:05:41.103Z,22.77
2022-08-16T20:08:07.991Z,23.15
2022-08-16T20:10:34.530Z,15.30
2022-08-16T20:13:02.443Z,14.48
2022-08-16T20:15:30.934Z,16.13
2022-08-16T20:17:58.095Z,18.02
2022-08-16T20:20:27.214Z,15.35
2022-08-16T20:23:02.645Z,12.23
2022-08-16T20:25:31.565Z,16.33
2022-08-16T20:27:59.947Z,13.98
2022-08-16T20:30:26.969Z,21.75
2022-08-16T20:32:53.750Z,12.80
2022-08-16T20:35:22.925Z,9.30
2022-08-16T20:37:49.464Z,10.82
2022-08-16T20:40:29.583Z,18.30
2022-08-16T20:43:07.523Z,13.77
2022-08-16T20:45:34.755Z,12.52
2022-08-16T20:48:01.172Z,17.35
2022-08-16T20:50:27.644Z,12.02
2022-08-16T20:52:54.065Z,14.55
2022-08-16T20:55:20.903Z,10.57
2022-08-16T20:57:47.348Z,12.20
2022-08-16T21:00:14.204Z,17.52
2022-08-16T21:02:40.751Z,15.82
2022-08-16T21:05:08.557Z,13.75
2022-08-16T21:07:35.488Z,17.27
2022-08-16T21:10:01.948Z,12.15
2022-08-16T21:12:33.800Z,16.20
2022-08-16T21:15:08.152Z,18.55
2022-08-16T21:17:34.549Z,13.90
2022-08-16T21:20:00.936Z,16.42
2022-08-16T21:22:27.395Z,18.38
2022-08-16T21:24:55.903Z,15.23
2022-08-16T21:27:25.492Z,13.40
2022-08-16T21:29:52.552Z,13.82
2022-08-16T21:32:45.001Z,17.67
2022-08-16T21:35:14.386Z,12.07
2022-08-16T21:37:41.176Z,12.80
2022-08-16T21:40:08.956Z,14.30
2022-08-16T21:42:36.752Z,10.95
2022-08-16T21:45:03.556Z,12.18
2022-08-16T21:47:29.990Z,14.48
2022-08-16T21:49:56.408Z,17.05
2022-08-16T21:52:26.702Z,12.88
2022-08-16T21:54:56.393Z,11.65
2022-08-16T21:57:23.152Z,10.30
2022-08-16T21:59:51.736Z,15.35
2022-08-16T22:02:20.743Z,11.63
2022-08-16T22:04:47.693Z,17.85
2022-08-16T22:07:16.724Z,13.90
2022-08-16T22:09:43.254Z,14.65
2022-08-16T22:12:18.044Z,13.85
2022-08-16T22:14:48.005Z,13.93
2022-08-16T22:17:15.291Z,11.57
2022-08-16T22:19:42.020Z,12.32
2022-08-16T22:22:08.519Z,14.85
2022-08-16T22:24:34.941Z,11.57
2022-08-16T22:27:01.369Z,14.20
2022-08-16T22:29:27.797Z,18.95
2022-08-16T22:31:54.213Z,12.50
2022-08-16T22:34:20.647Z,11.70
2022-08-16T22:36:47.232Z,12.50
2022-08-16T22:39:14.455Z,14.88
2022-08-16T22:41:43.163Z,13.40
2022-08-16T22:44:09.703Z,11.25
2022-08-16T22:46:36.663Z,11.57
2022-08-16T22:49:04.697Z,15.63
2022-08-16T22:51:31.400Z,13.77
2022-08-16T22:53:58.148Z,14.88
2022-08-16T22:56:25.389Z,15.27
2022-08-16T22:58:52.005Z,12.15
2022-08-16T23:01:20.140Z,11.82
2022-08-16T23:03:46.947Z,12.98
2022-08-16T23:06:13.909Z,17.08
2022-08-16T23:08:41.578Z,15.88
2022-08-16T23:11:22.293Z,12.85
2022-08-16T23:13:54.467Z,13.13
2022-08-16T23:16:32.516Z,11.90
2022-08-16T23:19:01.946Z,11.95
2022-08-16T23:21:28.357Z,12.88
2022-08-16T23:23:54.828Z,15.65
2022-08-16T23:26:46.370Z,12.27
2022-08-16T23:29:15.649Z,13.10
2022-08-16T23:31:56.045Z,12.63
2022-08-16T23:34:22.546Z,12.15
2022-08-16T23:36:48.982Z,12.43
2022-08-16T23:39:15.485Z,14.52
2022-08-16T23:41:41.936Z,12.82
2022-08-16T23:44:45.530Z,11.90
2022-08-16T23:46:55.265Z,11.82
2022-08-16T23:49:58.644Z,14.82
2022-08-16T23:52:09.205Z,11.57
2022-08-16T23:54:35.903Z,11.85
2022-08-16T23:57:02.807Z,12.02
2022-08-16T23:59:29.536Z,12.40
